createdAt,value
2018-01-29T00:01:28.268Z,4.30
2018-01-29T00:03:56.206Z,2.93
2018-01-29T00:06:24.380Z,3.60
2018-01-29T00:08:53.085Z,4.80
2018-01-29T00:11:21.030Z,4.40
2018-01-29T00:13:50.124Z,4.40
2018-01-29T00:16:18.970Z,4.13
2018-01-29T00:18:46.921Z,4.17
2018-01-29T00:21:14.990Z,4.97
2018-01-29T00:23:42.957Z,4.87
2018-01-29T00:26:10.972Z,4.30
2018-01-29T00:28:39.072Z,4.90
2018-01-29T00:31:07.886Z,4.27
2018-01-29T00:33:35.830Z,3.93
2018-01-29T00:36:04.660Z,4.17
2018-01-29T00:38:32.607Z,4.53
2018-01-29T00:41:00.564Z,5.13
2018-01-29T00:43:29.400Z,4.97
2018-01-29T00:45:57.372Z,5.80
2018-01-29T00:48:25.444Z,4.20
2018-01-29T00:50:53.638Z,4.93
2018-01-29T00:53:21.581Z,5.10
2018-01-29T00:55:49.696Z,4.93
2018-01-29T00:58:17.790Z,4.60
2018-01-29T01:00:46.463Z,4.50
2018-01-29T01:03:15.325Z,3.47
2018-01-29T01:05:43.480Z,4.60
2018-01-29T01:08:11.454Z,4.77
2018-01-29T01:10:39.390Z,4.10
2018-01-29T01:13:08.186Z,4.30
2018-01-29T01:15:36.175Z,4.37
2018-01-29T01:18:04.247Z,4.70
2018-01-29T01:20:32.310Z,3.77
2018-01-29T01:23:00.226Z,4.30
2018-01-29T01:25:28.176Z,4.10
2018-01-29T01:27:56.261Z,5.27
2018-01-29T01:30:24.197Z,4.00
2018-01-29T01:32:52.141Z,3.87
2018-01-29T01:35:20.965Z,3.87
2018-01-29T01:37:48.900Z,4.70
2018-01-29T01:40:17.577Z,4.27
2018-01-29T01:42:46.405Z,5.10
2018-01-29T01:45:14.459Z,4.87
2018-01-29T01:47:43.133Z,4.57
2018-01-29T01:50:11.941Z,5.10
2018-01-29T01:52:39.871Z,4.60
2018-01-29T01:55:07.823Z,4.10
2018-01-29T01:57:35.910Z,4.80
2018-01-29T02:00:04.141Z,4.00
2018-01-29T02:02:32.074Z,4.27
2018-01-29T02:05:00.148Z,5.50
2018-01-29T02:07:28.832Z,4.70
2018-01-29T02:09:56.749Z,4.90
2018-01-29T02:12:25.681Z,5.53
2018-01-29T02:14:53.644Z,4.50
2018-01-29T02:17:21.675Z,4.50
2018-01-29T02:19:49.934Z,4.30
2018-01-29T02:22:18.632Z,4.70
2018-01-29T02:24:46.563Z,4.43
2018-01-29T02:27:14.733Z,4.90
2018-01-29T02:29:42.676Z,4.93
2018-01-29T02:32:10.608Z,5.17
2018-01-29T02:34:39.434Z,4.83
2018-01-29T02:37:07.537Z,5.27
2018-01-29T02:39:35.538Z,3.90
2018-01-29T02:42:04.346Z,4.70
2018-01-29T02:44:32.296Z,4.67
2018-01-29T02:47:01.165Z,5.47
2018-01-29T02:49:29.350Z,5.83
2018-01-29T02:51:58.190Z,5.37
2018-01-29T02:54:26.259Z,6.00
2018-01-29T02:56:54.513Z,5.20
2018-01-29T02:59:24.146Z,5.70
2018-01-29T03:01:58.762Z,5.50
2018-01-29T03:27:35.177Z,5.40
2018-01-29T03:30:03.947Z,5.50
2018-01-29T03:32:31.972Z,6.47
2018-01-29T03:34:59.908Z,5.70
2018-01-29T03:37:28.732Z,4.23
2018-01-29T03:39:56.684Z,5.77
2018-01-29T03:42:24.631Z,6.17
2018-01-29T03:44:53.413Z,5.43
2018-01-29T03:47:22.154Z,5.63
2018-01-29T03:49:50.240Z,5.57
2018-01-29T03:52:18.319Z,5.37
2018-01-29T03:54:46.245Z,4.40
2018-01-29T03:57:14.256Z,5.03
2018-01-29T03:59:42.302Z,6.13
2018-01-29T04:02:10.221Z,4.47
2018-01-29T04:04:38.176Z,4.37
2018-01-29T04:07:06.229Z,5.03
2018-01-29T04:09:34.133Z,4.93
2018-01-29T04:12:02.065Z,4.70
2018-01-29T04:14:30.143Z,5.63
2018-01-29T04:16:58.114Z,4.40
2018-01-29T04:19:26.083Z,4.40
2018-01-29T04:21:54.161Z,4.37
2018-01-29T04:24:22.156Z,4.13
2018-01-29T04:26:50.203Z,4.63
2018-01-29T04:29:18.259Z,4.80
2018-01-29T04:31:46.200Z,4.40
2018-01-29T04:34:14.134Z,4.80
2018-01-29T04:36:42.200Z,4.63
2018-01-29T04:39:10.140Z,4.30
2018-01-29T04:41:38.082Z,5.17
2018-01-29T04:44:07.025Z,5.23
2018-01-29T04:46:35.125Z,4.57
2018-01-29T04:49:03.086Z,4.63
2018-01-29T04:51:31.290Z,4.27
2018-01-29T04:53:59.965Z,4.50
2018-01-29T04:56:28.725Z,4.97
2018-01-29T04:58:56.783Z,4.77
2018-01-29T05:01:24.738Z,4.93
2018-01-29T05:03:52.688Z,4.90
2018-01-29T05:06:20.864Z,4.67
2018-01-29T05:08:48.823Z,5.13
2018-01-29T05:11:17.518Z,4.70
2018-01-29T05:13:46.356Z,4.47
2018-01-29T05:16:14.291Z,4.30
2018-01-29T05:18:42.229Z,4.07
2018-01-29T05:21:11.104Z,4.23
2018-01-29T05:23:39.326Z,4.63
2018-01-29T05:26:07.284Z,4.40
2018-01-29T05:28:36.087Z,4.00
2018-01-29T05:31:04.023Z,4.33
2018-01-29T05:33:32.688Z,3.73
2018-01-29T05:36:18.229Z,3.90
2018-01-29T05:38:47.175Z,4.10
2018-01-29T05:41:15.222Z,3.77
2018-01-29T05:43:43.421Z,4.43
2018-01-29T05:46:11.359Z,3.90
2018-01-29T05:48:39.413Z,5.60
2018-01-29T05:51:07.616Z,4.40
2018-01-29T05:53:35.549Z,3.60
2018-01-29T05:56:03.573Z,4.23
2018-01-29T05:58:31.630Z,5.10
2018-01-29T06:00:59.589Z,3.60
2018-01-29T06:03:27.552Z,3.70
2018-01-29T06:05:55.624Z,4.33
2018-01-29T06:08:23.572Z,3.40
2018-01-29T06:10:52.240Z,4.30
2018-01-29T06:13:21.071Z,4.17
2018-01-29T06:15:49.236Z,3.80
2018-01-29T06:18:17.222Z,4.50
2018-01-29T06:20:45.274Z,4.17
2018-01-29T06:23:13.215Z,4.33
2018-01-29T06:25:42.037Z,4.00
2018-01-29T06:28:10.103Z,3.90
2018-01-29T06:30:38.056Z,3.90
2018-01-29T06:33:06.754Z,3.30
2018-01-29T06:35:34.876Z,3.63
2018-01-29T06:38:02.844Z,3.70
2018-01-29T06:40:30.781Z,4.17
2018-01-29T06:42:58.856Z,4.10
2018-01-29T06:45:26.916Z,3.80
2018-01-29T06:47:55.619Z,3.97
2018-01-29T06:50:23.689Z,4.40
2018-01-29T06:52:51.734Z,4.33
2018-01-29T06:55:20.413Z,4.00
2018-01-29T06:57:48.496Z,4.87
2018-01-29T07:00:17.157Z,4.00
2018-01-29T07:02:45.085Z,3.90
2018-01-29T07:05:13.179Z,3.80
2018-01-29T07:07:41.122Z,2.90
2018-01-29T07:10:09.064Z,3.63
2018-01-29T07:12:38.004Z,3.80
2018-01-29T07:15:05.936Z,4.03
2018-01-29T07:17:34.590Z,3.07
2018-01-29T07:20:02.662Z,4.47
2018-01-29T07:22:30.624Z,3.83
2018-01-29T07:24:58.569Z,4.27
2018-01-29T07:27:26.751Z,4.00
2018-01-29T07:29:54.712Z,3.93
2018-01-29T07:32:23.810Z,3.60
2018-01-29T07:34:51.849Z,3.70
2018-01-29T07:37:20.716Z,3.90
2018-01-29T07:39:48.638Z,4.40
2018-01-29T07:42:16.703Z,3.73
2018-01-29T07:44:45.157Z,4.80
2018-01-29T07:47:13.902Z,3.07
2018-01-29T07:49:41.964Z,4.37
2018-01-29T07:52:09.886Z,4.20
2018-01-29T07:54:38.550Z,3.97
2018-01-29T07:57:06.733Z,4.27
2018-01-29T07:59:34.670Z,4.30
2018-01-29T08:02:02.652Z,3.90
2018-01-29T08:04:30.724Z,3.60
2018-01-29T08:06:58.640Z,3.77
2018-01-29T08:09:26.582Z,3.90
2018-01-29T08:11:54.729Z,4.67
2018-01-29T08:14:22.708Z,4.23
2018-01-29T08:16:51.493Z,4.20
2018-01-29T08:19:19.553Z,4.27
2018-01-29T08:21:47.500Z,4.03
2018-01-29T08:24:15.439Z,4.37
2018-01-29T08:26:43.613Z,4.67
2018-01-29T08:29:11.749Z,4.13
2018-01-29T08:31:39.687Z,3.90
2018-01-29T08:34:07.906Z,4.30
2018-01-29T08:36:35.864Z,4.47
2018-01-29T08:39:04.119Z,4.10
2018-01-29T08:41:34.660Z,4.40
2018-01-29T08:44:04.052Z,4.60
2018-01-29T08:46:32.710Z,4.07
2018-01-29T08:49:02.234Z,4.60
2018-01-29T08:51:32.753Z,4.10
2018-01-29T08:54:01.528Z,5.00
2018-01-29T08:56:33.901Z,4.40
2018-01-29T08:59:03.692Z,4.40
2018-01-29T09:01:32.450Z,4.30
2018-01-29T09:04:00.389Z,3.90
2018-01-29T09:06:29.238Z,3.77
2018-01-29T09:08:57.203Z,3.60
2018-01-29T09:11:25.147Z,3.63
2018-01-29T09:13:54.644Z,3.83
2018-01-29T09:16:26.807Z,3.30
2018-01-29T09:18:55.286Z,4.00
2018-01-29T09:21:23.230Z,4.30
2018-01-29T09:23:51.186Z,4.80
2018-01-29T09:26:19.241Z,4.80
2018-01-29T09:28:47.176Z,4.10
2018-01-29T09:31:15.712Z,4.70
2018-01-29T09:33:43.761Z,3.97
2018-01-29T09:36:11.732Z,4.17
2018-01-29T09:38:39.657Z,4.20
2018-01-29T09:41:08.472Z,3.97
2018-01-29T09:43:36.412Z,5.03
2018-01-29T09:46:05.108Z,3.57
2018-01-29T09:48:34.042Z,3.53
2018-01-29T09:51:02.160Z,4.20
2018-01-29T09:53:30.891Z,4.10
2018-01-29T09:55:59.018Z,3.97
2018-01-29T09:58:27.716Z,4.10
2018-01-29T10:00:56.556Z,4.70
2018-01-29T10:03:24.597Z,4.90
2018-01-29T10:05:52.666Z,4.37
2018-01-29T10:08:20.609Z,4.77
2018-01-29T10:10:48.677Z,4.47
2018-01-29T10:13:16.619Z,4.80
2018-01-29T10:15:44.572Z,4.20
2018-01-29T10:18:12.680Z,4.20
2018-01-29T10:20:40.632Z,4.37
2018-01-29T10:23:08.567Z,3.80
2018-01-29T10:25:36.724Z,5.00
2018-01-29T10:28:05.480Z,4.27
2018-01-29T10:30:34.037Z,3.97
2018-01-29T10:33:02.358Z,4.70
2018-01-29T10:35:30.389Z,3.63
2018-01-29T10:37:58.318Z,3.90
2018-01-29T10:40:27.102Z,4.63
2018-01-29T10:42:55.784Z,3.77
2018-01-29T10:45:24.468Z,3.97
2018-01-29T10:47:52.535Z,3.47
2018-01-29T10:50:20.470Z,4.13
2018-01-29T10:52:48.414Z,3.83
2018-01-29T10:55:16.520Z,3.67
2018-01-29T10:57:44.464Z,3.67
2018-01-29T11:00:12.415Z,3.70
2018-01-29T11:02:41.201Z,4.33
2018-01-29T11:05:10.029Z,4.00
2018-01-29T11:07:37.945Z,3.57
2018-01-29T11:10:06.749Z,3.77
2018-01-29T11:12:35.409Z,3.60
2018-01-29T11:15:03.382Z,4.10
2018-01-29T11:17:31.561Z,3.70
2018-01-29T11:19:59.515Z,3.97
2018-01-29T11:22:27.445Z,4.10
2018-01-29T11:24:55.546Z,3.37
2018-01-29T11:27:23.513Z,3.60
2018-01-29T11:29:51.438Z,3.60
2018-01-29T11:32:20.232Z,3.20
2018-01-29T11:34:48.553Z,4.10
2018-01-29T11:37:16.609Z,3.60
2018-01-29T11:39:44.650Z,3.90
2018-01-29T11:42:13.328Z,3.27
2018-01-29T11:44:41.986Z,3.53
2018-01-29T11:47:10.178Z,3.97
2018-01-29T11:49:38.152Z,3.70
2018-01-29T11:52:06.835Z,4.23
2018-01-29T11:54:34.930Z,3.70
2018-01-29T11:57:03.679Z,4.00
2018-01-29T11:59:31.615Z,4.80
2018-01-29T12:01:59.661Z,4.20
2018-01-29T12:04:28.338Z,3.73
2018-01-29T12:06:57.078Z,3.83
2018-01-29T12:09:25.182Z,4.00
2018-01-29T12:11:53.120Z,4.47
2018-01-29T12:14:21.066Z,4.10
2018-01-29T12:16:49.215Z,4.43
2018-01-29T12:19:17.924Z,3.80
2018-01-29T12:21:45.860Z,3.37
2018-01-29T12:24:13.937Z,4.13
2018-01-29T12:26:42.680Z,4.40
2018-01-29T12:29:10.719Z,3.90
2018-01-29T12:31:39.512Z,3.60
2018-01-29T12:34:07.456Z,3.70
2018-01-29T12:36:36.240Z,4.40
2018-01-29T12:39:04.584Z,4.03
2018-01-29T12:41:32.534Z,4.13
2018-01-29T12:44:01.785Z,4.43
2018-01-29T12:46:30.038Z,4.47
2018-01-29T12:48:57.966Z,4.40
2018-01-29T12:51:25.852Z,4.40
2018-01-29T12:53:53.897Z,4.10
2018-01-29T12:56:23.151Z,4.03
2018-01-29T12:58:51.106Z,3.90
2018-01-29T13:01:19.197Z,4.60
2018-01-29T13:03:47.128Z,4.17
2018-01-29T13:06:15.165Z,3.60
2018-01-29T13:08:43.241Z,4.13
2018-01-29T13:11:11.921Z,4.87
2018-01-29T13:13:39.825Z,4.10
2018-01-29T13:16:07.914Z,4.50
2018-01-29T13:18:35.838Z,4.20
2018-01-29T13:21:03.775Z,4.70
2018-01-29T13:23:31.868Z,4.37
2018-01-29T13:25:59.972Z,3.90
2018-01-29T13:28:28.696Z,4.03
2018-01-29T13:30:56.789Z,4.17
2018-01-29T13:33:24.733Z,4.97
2018-01-29T13:35:52.887Z,4.33
2018-01-29T13:38:21.040Z,4.43
2018-01-29T13:40:49.738Z,4.87
2018-01-29T13:43:17.700Z,4.40
2018-01-29T13:45:46.650Z,4.17
2018-01-29T13:48:14.664Z,4.30
2018-01-29T13:50:43.375Z,5.03
2018-01-29T13:53:12.984Z,4.70
2018-01-29T13:55:41.959Z,4.20
2018-01-29T13:58:10.672Z,5.30
2018-01-29T14:00:39.504Z,4.60
2018-01-29T14:03:07.429Z,4.80
2018-01-29T14:05:36.073Z,4.60
2018-01-29T14:08:04.550Z,4.50
2018-01-29T14:10:32.528Z,5.67
2018-01-29T14:13:00.448Z,5.00
2018-01-29T14:15:28.777Z,4.73
2018-01-29T14:17:56.740Z,5.57
2018-01-29T14:20:24.776Z,4.53
2018-01-29T14:22:53.104Z,5.10
2018-01-29T14:25:21.840Z,5.20
2018-01-29T14:27:49.761Z,5.00
2018-01-29T14:30:17.826Z,4.43
2018-01-29T14:32:45.754Z,4.90
2018-01-29T14:35:13.694Z,4.50
2018-01-29T14:37:42.549Z,5.50
2018-01-29T14:40:10.640Z,5.17
2018-01-29T14:42:39.309Z,5.20
2018-01-29T14:45:07.386Z,5.57
2018-01-29T14:47:35.337Z,5.23
2018-01-29T14:50:03.289Z,4.97
2018-01-29T14:52:31.364Z,4.57
2018-01-29T14:54:59.323Z,5.10
2018-01-29T14:57:27.229Z,5.50
2018-01-29T14:59:55.304Z,5.30
2018-01-29T15:02:23.253Z,4.57
2018-01-29T15:04:51.194Z,5.03
2018-01-29T15:07:19.336Z,5.20
2018-01-29T15:09:47.269Z,5.73
2018-01-29T15:12:15.218Z,5.17
2018-01-29T15:14:43.304Z,6.00
2018-01-29T15:17:11.294Z,5.93
2018-01-29T15:19:39.240Z,6.40
2018-01-29T15:22:07.327Z,6.70
2018-01-29T15:24:35.296Z,6.50
2018-01-29T15:27:03.262Z,6.00
2018-01-29T15:29:31.360Z,6.60
2018-01-29T15:31:59.274Z,6.03
2018-01-29T15:34:27.217Z,6.80
2018-01-29T15:36:56.136Z,5.90
2018-01-29T15:39:24.762Z,6.23
2018-01-29T15:41:52.732Z,5.53
2018-01-29T15:44:21.367Z,5.57
2018-01-29T15:46:50.155Z,6.27
2018-01-29T15:49:18.863Z,5.93
2018-01-29T15:51:46.954Z,5.80
2018-01-29T15:54:14.883Z,6.00
2018-01-29T15:56:43.624Z,5.40
2018-01-29T15:59:11.689Z,6.07
2018-01-29T16:01:39.670Z,6.60
2018-01-29T16:04:07.589Z,5.83
2018-01-29T16:06:36.544Z,6.50
2018-01-29T16:09:04.729Z,6.80
2018-01-29T16:11:32.676Z,5.80
2018-01-29T16:14:00.849Z,6.57
2018-01-29T16:16:28.917Z,6.27
2018-01-29T16:18:56.864Z,6.50
2018-01-29T16:21:24.929Z,6.77
2018-01-29T16:23:52.841Z,6.40
2018-01-29T16:26:20.778Z,6.50
2018-01-29T16:28:48.848Z,6.77
2018-01-29T16:31:16.779Z,6.43
2018-01-29T16:33:44.708Z,6.33
2018-01-29T16:36:12.811Z,5.83
2018-01-29T16:38:40.780Z,6.13
2018-01-29T16:41:08.709Z,5.70
2018-01-29T16:43:36.799Z,6.00
2018-01-29T16:46:04.894Z,5.10
2018-01-29T16:48:33.624Z,5.63
2018-01-29T16:51:01.677Z,7.03
2018-01-29T16:53:30.353Z,7.10
2018-01-29T16:55:58.420Z,5.70
2018-01-29T16:58:26.491Z,6.33
2018-01-29T17:00:54.439Z,6.10
2018-01-29T17:03:22.524Z,6.07
2018-01-29T17:05:50.601Z,6.30
2018-01-29T17:08:18.649Z,6.87
2018-01-29T17:10:46.586Z,6.03
2018-01-29T17:13:14.649Z,7.03
2018-01-29T17:15:43.309Z,5.10
2018-01-29T17:18:12.597Z,5.80
2018-01-29T17:20:40.788Z,5.83
2018-01-29T17:23:08.727Z,5.60
2018-01-29T17:25:36.639Z,6.60
2018-01-29T17:28:04.764Z,6.47
2018-01-29T17:30:32.689Z,6.87
2018-01-29T17:33:01.365Z,5.40
2018-01-29T17:35:29.569Z,5.77
2018-01-29T17:37:57.694Z,6.30
2018-01-29T17:40:25.660Z,7.37
2018-01-29T17:42:53.865Z,7.20
2018-01-29T17:45:22.656Z,5.80
2018-01-29T17:47:51.706Z,6.80
2018-01-29T17:50:19.759Z,6.70
2018-01-29T17:52:47.713Z,5.20
2018-01-29T17:55:16.408Z,6.07
2018-01-29T17:57:44.490Z,6.80
2018-01-29T18:00:12.465Z,5.80
2018-01-29T18:02:40.432Z,6.27
2018-01-29T18:05:08.484Z,5.90
2018-01-29T18:07:37.146Z,6.27
2018-01-29T18:10:05.093Z,5.90
2018-01-29T18:12:33.173Z,5.80
2018-01-29T18:15:01.162Z,6.07
2018-01-29T18:17:30.093Z,6.70
2018-01-29T18:19:58.145Z,6.30
2018-01-29T18:22:26.844Z,5.87
2018-01-29T18:24:54.829Z,5.97
2018-01-29T18:27:22.976Z,6.17
2018-01-29T18:29:51.676Z,4.97
2018-01-29T18:32:19.812Z,5.10
2018-01-29T18:34:47.904Z,5.67
2018-01-29T18:37:16.627Z,5.23
2018-01-29T18:39:44.580Z,6.13
2018-01-29T18:42:13.402Z,5.67
2018-01-29T18:44:41.372Z,6.07
2018-01-29T18:47:09.346Z,6.80
2018-01-29T18:49:37.544Z,6.30
2018-01-29T18:52:05.489Z,5.93
2018-01-29T18:54:33.424Z,6.10
2018-01-29T18:57:02.276Z,6.30
2018-01-29T18:59:30.219Z,6.13
2018-01-29T19:01:58.163Z,6.40
2018-01-29T19:04:26.237Z,5.03
2018-01-29T19:06:54.237Z,6.10
2018-01-29T19:09:22.145Z,6.00
2018-01-29T19:11:50.210Z,6.43
2018-01-29T19:14:18.153Z,5.90
2018-01-29T19:16:46.130Z,5.43
2018-01-29T19:19:14.211Z,5.97
2018-01-29T19:21:42.909Z,5.80
2018-01-29T19:24:10.858Z,5.00
2018-01-29T19:26:38.967Z,6.40
2018-01-29T19:29:07.673Z,5.77
2018-01-29T19:31:36.330Z,6.03
2018-01-29T19:34:04.432Z,5.47
2018-01-29T19:36:33.192Z,5.70
2018-01-29T19:39:01.108Z,4.97
2018-01-29T19:41:29.149Z,5.50
2018-01-29T19:43:57.814Z,6.43
2018-01-29T19:46:25.852Z,5.50
2018-01-29T19:48:53.931Z,6.57
2018-01-29T19:51:21.998Z,6.50
2018-01-29T19:53:49.951Z,5.63
2018-01-29T19:56:18.097Z,6.60
2018-01-29T19:58:46.792Z,5.30
2018-01-29T20:01:15.481Z,5.90
2018-01-29T20:03:44.553Z,6.00
2018-01-29T20:06:12.638Z,6.57
2018-01-29T20:08:41.290Z,6.50
2018-01-29T20:11:09.971Z,6.10
2018-01-29T20:13:38.658Z,5.80
2018-01-29T20:16:06.610Z,7.13
2018-01-29T20:18:34.803Z,6.00
2018-01-29T20:21:02.744Z,6.27
2018-01-29T20:23:30.680Z,6.33
2018-01-29T20:25:58.731Z,6.47
2018-01-29T20:28:26.695Z,6.80
2018-01-29T20:30:54.760Z,7.67
2018-01-29T20:33:22.830Z,6.20
2018-01-29T20:35:50.781Z,6.20
2018-01-29T20:38:18.729Z,6.37
2018-01-29T20:40:46.808Z,5.80
2018-01-29T20:43:14.749Z,6.10
2018-01-29T20:45:42.697Z,7.47
2018-01-29T20:48:10.777Z,6.40
2018-01-29T20:50:38.718Z,5.90
2018-01-29T20:53:06.804Z,6.30
2018-01-29T20:55:34.905Z,7.00
2018-01-29T20:58:02.867Z,5.63
2018-01-29T21:00:30.796Z,6.67
2018-01-29T21:02:59.077Z,6.50
2018-01-29T21:05:27.019Z,6.27
2018-01-29T21:07:55.716Z,6.70
2018-01-29T21:10:23.789Z,7.20
2018-01-29T21:12:51.729Z,8.57
2018-01-29T21:15:20.395Z,8.07
2018-01-29T21:17:48.468Z,6.47
2018-01-29T21:20:16.416Z,6.87
2018-01-29T21:22:44.389Z,7.13
2018-01-29T21:25:12.470Z,6.47
2018-01-29T21:27:40.405Z,7.43
2018-01-29T21:30:08.375Z,7.23
2018-01-29T21:32:36.447Z,6.80
2018-01-29T21:35:04.408Z,6.67
2018-01-29T21:37:32.341Z,7.57
2018-01-29T21:40:00.386Z,6.80
2018-01-29T21:42:28.334Z,8.10
2018-01-29T21:44:56.275Z,7.30
2018-01-29T21:47:25.167Z,7.63
2018-01-29T21:49:54.312Z,6.27
2018-01-29T21:52:22.264Z,7.07
2018-01-29T21:54:50.467Z,8.00
2018-01-29T21:57:18.434Z,8.30
2018-01-29T21:59:46.388Z,10.80
2018-01-29T22:02:14.458Z,9.23
2018-01-29T22:04:42.401Z,9.03
2018-01-29T22:07:11.122Z,8.83
2018-01-29T22:09:39.191Z,8.10
2018-01-29T22:12:07.230Z,9.30
2018-01-29T22:14:35.874Z,9.17
2018-01-29T22:17:04.033Z,9.43
2018-01-29T22:19:31.971Z,10.17
2018-01-29T22:21:59.901Z,10.10
2018-01-29T22:24:27.941Z,10.03
2018-01-29T22:26:56.055Z,10.20
2018-01-29T22:29:24.003Z,10.33
2018-01-29T22:31:52.069Z,9.13
2018-01-29T22:34:20.004Z,8.90
2018-01-29T22:36:48.204Z,9.80
2018-01-29T22:39:16.276Z,9.27
2018-01-29T22:41:44.227Z,9.80
2018-01-29T22:44:12.141Z,9.03
2018-01-29T22:46:40.307Z,9.57
2018-01-29T22:49:08.250Z,9.40
2018-01-29T22:51:36.185Z,8.70
2018-01-29T22:54:04.988Z,9.30
2018-01-29T22:56:33.831Z,9.20
2018-01-29T22:59:01.773Z,8.50
2018-01-29T23:01:29.802Z,10.30
2018-01-29T23:03:58.479Z,8.90
2018-01-29T23:06:26.423Z,10.00
2018-01-29T23:08:54.503Z,8.87
2018-01-29T23:11:22.454Z,9.10
2018-01-29T23:13:50.394Z,9.80
2018-01-29T23:16:18.499Z,8.70
2018-01-29T23:18:46.436Z,9.10
2018-01-29T23:21:14.358Z,9.50
2018-01-29T23:23:42.404Z,9.83
2018-01-29T23:26:10.347Z,8.80
2018-01-29T23:28:38.289Z,9.17
2018-01-29T23:31:06.337Z,8.40
2018-01-29T23:33:34.299Z,9.30
2018-01-29T23:36:02.237Z,9.73
2018-01-29T23:38:30.301Z,9.33
2018-01-29T23:40:58.996Z,8.90
2018-01-29T23:43:26.953Z,8.97
2018-01-29T23:45:55.741Z,8.70
2018-01-29T23:48:24.401Z,9.20
2018-01-29T23:50:52.346Z,9.53
2018-01-29T23:53:20.431Z,9.73
2018-01-29T23:55:48.356Z,10.27
2018-01-29T23:58:16.430Z,9.80
